sensor_id;sensor_type;location;lat;lon;timestamp;P1;durP1;ratioP1;P2;durP2;ratioP2
15528;SDS011;7866;52.280;9.500;2023-02-22T00:00:39;13.73;;;9.77;;
15528;SDS011;7866;52.280;9.500;2023-02-22T00:05:45;11.30;;;8.10;;
15528;SDS011;7866;52.280;9.500;2023-02-22T00:10:47;12.30;;;8.67;;
15528;SDS011;7866;52.280;9.500;2023-02-22T00:15:51;13.10;;;9.20;;
15528;SDS011;7866;52.280;9.500;2023-02-22T00:20:54;11.80;;;8.60;;
15528;SDS011;7866;52.280;9.500;2023-02-22T00:25:59;12.13;;;8.37;;
15528;SDS011;7866;52.280;9.500;2023-02-22T00:31:01;13.37;;;9.67;;
15528;SDS011;7866;52.280;9.500;2023-02-22T00:36:06;12.43;;;9.27;;
15528;SDS011;7866;52.280;9.500;2023-02-22T00:41:08;11.53;;;8.37;;
15528;SDS011;7866;52.280;9.500;2023-02-22T00:46:12;12.53;;;8.47;;
15528;SDS011;7866;52.280;9.500;2023-02-22T00:51:15;10.37;;;7.63;;
15528;SDS011;7866;52.280;9.500;2023-02-22T00:56:17;8.37;;;6.60;;
15528;SDS011;7866;52.280;9.500;2023-02-22T01:01:19;11.40;;;7.53;;
15528;SDS011;7866;52.280;9.500;2023-02-22T01:06:22;8.87;;;5.83;;
15528;SDS011;7866;52.280;9.500;2023-02-22T01:11:24;7.63;;;5.60;;
15528;SDS011;7866;52.280;9.500;2023-02-22T01:16:25;5.10;;;4.30;;
15528;SDS011;7866;52.280;9.500;2023-02-22T01:21:29;7.17;;;5.27;;
15528;SDS011;7866;52.280;9.500;2023-02-22T01:26:30;6.53;;;4.63;;
15528;SDS011;7866;52.280;9.500;2023-02-22T01:31:32;5.67;;;4.17;;
15528;SDS011;7866;52.280;9.500;2023-02-22T01:36:35;6.90;;;4.83;;
15528;SDS011;7866;52.280;9.500;2023-02-22T01:41:37;6.17;;;4.23;;
15528;SDS011;7866;52.280;9.500;2023-02-22T01:46:39;5.30;;;4.10;;
15528;SDS011;7866;52.280;9.500;2023-02-22T01:51:42;7.07;;;4.00;;
15528;SDS011;7866;52.280;9.500;2023-02-22T01:56:49;4.87;;;4.03;;
15528;SDS011;7866;52.280;9.500;2023-02-22T02:01:59;5.57;;;4.20;;
15528;SDS011;7866;52.280;9.500;2023-02-22T02:07:05;5.07;;;4.37;;
15528;SDS011;7866;52.280;9.500;2023-02-22T02:12:10;5.40;;;3.90;;
15528;SDS011;7866;52.280;9.500;2023-02-22T02:17:14;5.63;;;3.77;;
15528;SDS011;7866;52.280;9.500;2023-02-22T02:28:00;6.57;;;3.80;;
15528;SDS011;7866;52.280;9.500;2023-02-22T02:33:18;6.50;;;3.90;;
15528;SDS011;7866;52.280;9.500;2023-02-22T02:38:31;4.57;;;3.50;;
15528;SDS011;7866;52.280;9.500;2023-02-22T02:43:38;5.07;;;3.37;;
15528;SDS011;7866;52.280;9.500;2023-02-22T02:48:48;5.83;;;3.47;;
15528;SDS011;7866;52.280;9.500;2023-02-22T02:53:55;5.37;;;3.50;;
15528;SDS011;7866;52.280;9.500;2023-02-22T02:58:58;4.03;;;3.30;;
15528;SDS011;7866;52.280;9.500;2023-02-22T03:04:06;4.37;;;2.83;;
15528;SDS011;7866;52.280;9.500;2023-02-22T03:09:22;3.73;;;3.13;;
15528;SDS011;7866;52.280;9.500;2023-02-22T03:14:37;3.77;;;3.07;;
15528;SDS011;7866;52.280;9.500;2023-02-22T03:19:44;4.00;;;3.10;;
15528;SDS011;7866;52.280;9.500;2023-02-22T03:24:52;6.03;;;2.90;;
15528;SDS011;7866;52.280;9.500;2023-02-22T03:30:00;3.93;;;2.50;;
15528;SDS011;7866;52.280;9.500;2023-02-22T03:35:07;2.77;;;2.50;;
15528;SDS011;7866;52.280;9.500;2023-02-22T03:40:14;3.67;;;2.90;;
15528;SDS011;7866;52.280;9.500;2023-02-22T03:45:25;3.53;;;3.03;;
15528;SDS011;7866;52.280;9.500;2023-02-22T03:50:31;5.33;;;2.77;;
15528;SDS011;7866;52.280;9.500;2023-02-22T03:55:35;4.00;;;2.70;;
15528;SDS011;7866;52.280;9.500;2023-02-22T04:00:37;2.33;;;2.13;;
15528;SDS011;7866;52.280;9.500;2023-02-22T04:05:44;4.60;;;2.60;;
15528;SDS011;7866;52.280;9.500;2023-02-22T04:10:46;3.70;;;3.07;;
15528;SDS011;7866;52.280;9.500;2023-02-22T04:15:48;4.93;;;3.10;;
15528;SDS011;7866;52.280;9.500;2023-02-22T04:20:50;5.57;;;3.20;;
15528;SDS011;7866;52.280;9.500;2023-02-22T04:25:52;4.73;;;3.10;;
15528;SDS011;7866;52.280;9.500;2023-02-22T04:30:54;4.87;;;3.47;;
15528;SDS011;7866;52.280;9.500;2023-02-22T04:35:57;3.80;;;3.40;;
15528;SDS011;7866;52.280;9.500;2023-02-22T04:40:58;6.93;;;4.10;;
15528;SDS011;7866;52.280;9.500;2023-02-22T04:46:00;5.30;;;3.90;;
15528;SDS011;7866;52.280;9.500;2023-02-22T04:51:04;5.67;;;4.10;;
15528;SDS011;7866;52.280;9.500;2023-02-22T04:56:07;5.77;;;4.77;;
15528;SDS011;7866;52.280;9.500;2023-02-22T05:01:09;7.10;;;4.63;;
15528;SDS011;7866;52.280;9.500;2023-02-22T05:06:12;7.03;;;5.13;;
15528;SDS011;7866;52.280;9.500;2023-02-22T05:11:13;6.17;;;4.70;;
15528;SDS011;7866;52.280;9.500;2023-02-22T05:16:15;8.90;;;5.20;;
15528;SDS011;7866;52.280;9.500;2023-02-22T05:21:18;8.40;;;5.20;;
15528;SDS011;7866;52.280;9.500;2023-02-22T05:26:20;7.00;;;5.07;;
15528;SDS011;7866;52.280;9.500;2023-02-22T05:31:22;7.30;;;5.73;;
15528;SDS011;7866;52.280;9.500;2023-02-22T05:36:25;8.80;;;5.50;;
15528;SDS011;7866;52.280;9.500;2023-02-22T05:41:27;9.40;;;6.07;;
15528;SDS011;7866;52.280;9.500;2023-02-22T05:46:28;8.63;;;6.40;;
15528;SDS011;7866;52.280;9.500;2023-02-22T05:51:31;7.93;;;5.87;;
15528;SDS011;7866;52.280;9.500;2023-02-22T05:56:33;9.00;;;6.47;;
15528;SDS011;7866;52.280;9.500;2023-02-22T06:01:35;9.77;;;6.70;;
15528;SDS011;7866;52.280;9.500;2023-02-22T06:06:38;9.97;;;6.60;;
15528;SDS011;7866;52.280;9.500;2023-02-22T06:11:40;8.77;;;6.93;;
15528;SDS011;7866;52.280;9.500;2023-02-22T06:16:42;11.93;;;6.90;;
15528;SDS011;7866;52.280;9.500;2023-02-22T06:21:48;11.53;;;7.80;;
15528;SDS011;7866;52.280;9.500;2023-02-22T06:26:53;12.80;;;7.43;;
15528;SDS011;7866;52.280;9.500;2023-02-22T06:31:55;9.80;;;7.03;;
15528;SDS011;7866;52.280;9.500;2023-02-22T06:36:58;10.97;;;7.73;;
15528;SDS011;7866;52.280;9.500;2023-02-22T06:42:00;12.00;;;7.97;;
15528;SDS011;7866;52.280;9.500;2023-02-22T06:47:02;9.73;;;7.63;;
15528;SDS011;7866;52.280;9.500;2023-02-22T06:52:05;10.33;;;7.43;;
15528;SDS011;7866;52.280;9.500;2023-02-22T06:57:07;13.07;;;9.30;;
15528;SDS011;7866;52.280;9.500;2023-02-22T07:02:09;11.07;;;8.53;;
15528;SDS011;7866;52.280;9.500;2023-02-22T07:07:13;13.47;;;10.13;;
15528;SDS011;7866;52.280;9.500;2023-02-22T07:12:14;12.37;;;9.33;;
15528;SDS011;7866;52.280;9.500;2023-02-22T07:17:16;12.57;;;8.07;;
15528;SDS011;7866;52.280;9.500;2023-02-22T07:22:19;13.77;;;9.47;;
15528;SDS011;7866;52.280;9.500;2023-02-22T07:27:21;12.17;;;8.83;;
15528;SDS011;7866;52.280;9.500;2023-02-22T07:32:22;11.07;;;8.87;;
15528;SDS011;7866;52.280;9.500;2023-02-22T07:37:25;14.27;;;10.47;;
15528;SDS011;7866;52.280;9.500;2023-02-22T07:42:27;15.17;;;10.77;;
15528;SDS011;7866;52.280;9.500;2023-02-22T07:47:28;20.73;;;14.03;;
15528;SDS011;7866;52.280;9.500;2023-02-22T07:52:31;16.73;;;12.80;;
15528;SDS011;7866;52.280;9.500;2023-02-22T07:57:33;17.37;;;12.07;;
15528;SDS011;7866;52.280;9.500;2023-02-22T08:02:35;18.73;;;13.80;;
15528;SDS011;7866;52.280;9.500;2023-02-22T08:07:38;16.67;;;12.80;;
15528;SDS011;7866;52.280;9.500;2023-02-22T08:12:40;19.20;;;14.20;;
15528;SDS011;7866;52.280;9.500;2023-02-22T08:17:41;16.43;;;13.40;;
15528;SDS011;7866;52.280;9.500;2023-02-22T08:22:44;18.30;;;13.57;;
15528;SDS011;7866;52.280;9.500;2023-02-22T08:27:46;16.53;;;12.63;;
15528;SDS011;7866;52.280;9.500;2023-02-22T08:32:48;20.10;;;14.03;;
15528;SDS011;7866;52.280;9.500;2023-02-22T08:37:54;17.60;;;13.23;;
15528;SDS011;7866;52.280;9.500;2023-02-22T08:42:58;18.00;;;13.83;;
15528;SDS011;7866;52.280;9.500;2023-02-22T08:48:01;16.70;;;13.20;;
15528;SDS011;7866;52.280;9.500;2023-02-22T08:53:04;20.90;;;15.90;;
15528;SDS011;7866;52.280;9.500;2023-02-22T08:58:06;24.10;;;16.33;;
15528;SDS011;7866;52.280;9.500;2023-02-22T09:03:10;19.97;;;15.07;;
15528;SDS011;7866;52.280;9.500;2023-02-22T09:08:15;18.77;;;14.70;;
15528;SDS011;7866;52.280;9.500;2023-02-22T09:13:17;17.77;;;14.57;;
15528;SDS011;7866;52.280;9.500;2023-02-22T09:18:19;18.90;;;14.37;;
15528;SDS011;7866;52.280;9.500;2023-02-22T09:23:22;17.90;;;14.33;;
15528;SDS011;7866;52.280;9.500;2023-02-22T09:28:25;21.63;;;16.40;;
15528;SDS011;7866;52.280;9.500;2023-02-22T09:33:27;20.43;;;14.70;;
15528;SDS011;7866;52.280;9.500;2023-02-22T09:38:30;18.93;;;13.13;;
15528;SDS011;7866;52.280;9.500;2023-02-22T09:43:34;20.43;;;15.27;;
15528;SDS011;7866;52.280;9.500;2023-02-22T09:48:45;17.90;;;14.70;;
15528;SDS011;7866;52.280;9.500;2023-02-22T09:53:58;17.40;;;13.87;;
15528;SDS011;7866;52.280;9.500;2023-02-22T09:59:04;15.70;;;13.03;;
15528;SDS011;7866;52.280;9.500;2023-02-22T10:04:10;19.03;;;14.00;;
15528;SDS011;7866;52.280;9.500;2023-02-22T10:09:20;16.97;;;13.47;;
15528;SDS011;7866;52.280;9.500;2023-02-22T10:14:33;19.40;;;13.77;;
15528;SDS011;7866;52.280;9.500;2023-02-22T10:19:48;19.03;;;15.33;;
15528;SDS011;7866;52.280;9.500;2023-02-22T10:25:07;15.80;;;13.23;;
15528;SDS011;7866;52.280;9.500;2023-02-22T10:30:13;18.43;;;13.77;;
15528;SDS011;7866;52.280;9.500;2023-02-22T10:35:20;16.13;;;13.53;;
15528;SDS011;7866;52.280;9.500;2023-02-22T10:40:26;16.70;;;13.50;;
15528;SDS011;7866;52.280;9.500;2023-02-22T10:45:32;19.67;;;14.33;;
15528;SDS011;7866;52.280;9.500;2023-02-22T10:50:37;17.87;;;13.73;;
15528;SDS011;7866;52.280;9.500;2023-02-22T11:01:18;19.13;;;13.13;;
15528;SDS011;7866;52.280;9.500;2023-02-22T11:06:21;16.87;;;12.90;;
15528;SDS011;7866;52.280;9.500;2023-02-22T11:11:25;15.70;;;11.17;;
15528;SDS011;7866;52.280;9.500;2023-02-22T11:16:30;15.83;;;12.10;;
15528;SDS011;7866;52.280;9.500;2023-02-22T11:21:33;16.13;;;12.33;;
15528;SDS011;7866;52.280;9.500;2023-02-22T11:26:37;14.47;;;11.57;;
15528;SDS011;7866;52.280;9.500;2023-02-22T11:31:41;14.40;;;11.67;;
15528;SDS011;7866;52.280;9.500;2023-02-22T11:36:45;14.00;;;11.40;;
15528;SDS011;7866;52.280;9.500;2023-02-22T11:41:48;14.95;;;12.10;;
15528;SDS011;7866;52.280;9.500;2023-02-22T11:46:51;17.23;;;11.97;;
15528;SDS011;7866;52.280;9.500;2023-02-22T11:52:01;13.43;;;10.38;;
15528;SDS011;7866;52.280;9.500;2023-02-22T11:57:17;12.27;;;10.30;;
15528;SDS011;7866;52.280;9.500;2023-02-22T12:02:30;14.88;;;10.75;;
15528;SDS011;7866;52.280;9.500;2023-02-22T12:07:50;13.53;;;10.13;;
15528;SDS011;7866;52.280;9.500;2023-02-22T12:13:07;12.32;;;10.95;;
15528;SDS011;7866;52.280;9.500;2023-02-22T12:18:20;12.30;;;9.98;;
15528;SDS011;7866;52.280;9.500;2023-02-22T12:23:32;12.05;;;9.10;;
15528;SDS011;7866;52.280;9.500;2023-02-22T12:28:42;12.48;;;9.30;;
15528;SDS011;7866;52.280;9.500;2023-02-22T12:33:50;12.25;;;10.07;;
15528;SDS011;7866;52.280;9.500;2023-02-22T12:39:02;12.60;;;10.75;;
15528;SDS011;7866;52.280;9.500;2023-02-22T12:44:07;11.00;;;9.02;;
15528;SDS011;7866;52.280;9.500;2023-02-22T12:49:17;12.13;;;9.50;;
15528;SDS011;7866;52.280;9.500;2023-02-22T12:54:27;10.48;;;8.82;;
15528;SDS011;7866;52.280;9.500;2023-02-22T12:59:44;12.73;;;9.13;;
15528;SDS011;7866;52.280;9.500;2023-02-22T13:04:49;9.70;;;8.13;;
15528;SDS011;7866;52.280;9.500;2023-02-22T13:10:09;9.82;;;8.35;;
15528;SDS011;7866;52.280;9.500;2023-02-22T13:15:26;13.27;;;8.68;;
15528;SDS011;7866;52.280;9.500;2023-02-22T13:20:33;9.98;;;8.52;;
15528;SDS011;7866;52.280;9.500;2023-02-22T13:25:40;8.60;;;7.70;;
15528;SDS011;7866;52.280;9.500;2023-02-22T13:30:51;9.23;;;6.90;;
15528;SDS011;7866;52.280;9.500;2023-02-22T13:36:12;9.02;;;7.15;;
15528;SDS011;7866;52.280;9.500;2023-02-22T13:41:31;9.20;;;7.13;;
15528;SDS011;7866;52.280;9.500;2023-02-22T13:46:56;10.38;;;6.95;;
15528;SDS011;7866;52.280;9.500;2023-02-22T13:52:17;7.93;;;6.88;;
15528;SDS011;7866;52.280;9.500;2023-02-22T13:57:23;8.07;;;6.45;;
15528;SDS011;7866;52.280;9.500;2023-02-22T14:08:07;5.93;;;4.95;;
15528;SDS011;7866;52.280;9.500;2023-02-22T14:19:16;7.85;;;5.43;;
15528;SDS011;7866;52.280;9.500;2023-02-22T14:24:22;4.65;;;4.05;;
15528;SDS011;7866;52.280;9.500;2023-02-22T14:29:24;6.40;;;4.60;;
15528;SDS011;7866;52.280;9.500;2023-02-22T14:34:44;4.97;;;4.43;;
15528;SDS011;7866;52.280;9.500;2023-02-22T14:39:49;5.82;;;4.65;;
15528;SDS011;7866;52.280;9.500;2023-02-22T14:44:55;6.40;;;4.43;;
15528;SDS011;7866;52.280;9.500;2023-02-22T14:50:03;5.72;;;4.22;;
15528;SDS011;7866;52.280;9.500;2023-02-22T14:55:13;5.30;;;3.70;;
15528;SDS011;7866;52.280;9.500;2023-02-22T15:00:21;4.25;;;3.85;;
15528;SDS011;7866;52.280;9.500;2023-02-22T15:05:35;3.70;;;3.40;;
15528;SDS011;7866;52.280;9.500;2023-02-22T15:10:38;5.68;;;4.00;;
15528;SDS011;7866;52.280;9.500;2023-02-22T15:15:43;4.30;;;3.90;;
15528;SDS011;7866;52.280;9.500;2023-02-22T15:20:47;5.22;;;3.53;;
15528;SDS011;7866;52.280;9.500;2023-02-22T15:25:55;5.40;;;3.83;;
15528;SDS011;7866;52.280;9.500;2023-02-22T15:36:28;6.68;;;2.55;;
15528;SDS011;7866;52.280;9.500;2023-02-22T15:41:31;2.83;;;2.58;;
15528;SDS011;7866;52.280;9.500;2023-02-22T15:46:33;3.88;;;2.28;;
15528;SDS011;7866;52.280;9.500;2023-02-22T15:51:37;6.60;;;2.50;;
15528;SDS011;7866;52.280;9.500;2023-02-22T15:56:49;2.40;;;2.20;;
15528;SDS011;7866;52.280;9.500;2023-02-22T16:01:55;2.92;;;2.38;;
15528;SDS011;7866;52.280;9.500;2023-02-22T16:07:03;2.75;;;1.98;;
15528;SDS011;7866;52.280;9.500;2023-02-22T16:12:22;4.25;;;1.90;;
15528;SDS011;7866;52.280;9.500;2023-02-22T16:17:29;3.13;;;1.87;;
15528;SDS011;7866;52.280;9.500;2023-02-22T16:22:36;2.73;;;1.87;;
15528;SDS011;7866;52.280;9.500;2023-02-22T16:27:39;2.27;;;1.80;;
15528;SDS011;7866;52.280;9.500;2023-02-22T16:32:46;8.07;;;5.20;;
15528;SDS011;7866;52.280;9.500;2023-02-22T16:37:51;5.63;;;2.60;;
15528;SDS011;7866;52.280;9.500;2023-02-22T16:42:57;1.87;;;1.77;;
15528;SDS011;7866;52.280;9.500;2023-02-22T16:48:00;4.07;;;1.93;;
15528;SDS011;7866;52.280;9.500;2023-02-22T16:53:13;2.40;;;2.00;;
15528;SDS011;7866;52.280;9.500;2023-02-22T16:58:19;2.43;;;1.90;;
15528;SDS011;7866;52.280;9.500;2023-02-22T17:03:20;3.37;;;2.30;;
15528;SDS011;7866;52.280;9.500;2023-02-22T17:08:23;4.60;;;2.57;;
15528;SDS011;7866;52.280;9.500;2023-02-22T17:13:25;6.07;;;2.90;;
15528;SDS011;7866;52.280;9.500;2023-02-22T17:18:28;3.43;;;2.33;;
15528;SDS011;7866;52.280;9.500;2023-02-22T17:23:34;2.33;;;1.87;;
15528;SDS011;7866;52.280;9.500;2023-02-22T17:28:36;2.50;;;1.90;;
15528;SDS011;7866;52.280;9.500;2023-02-22T17:33:37;2.10;;;1.90;;
15528;SDS011;7866;52.280;9.500;2023-02-22T17:38:41;2.70;;;1.83;;
15528;SDS011;7866;52.280;9.500;2023-02-22T17:43:42;3.83;;;1.90;;
15528;SDS011;7866;52.280;9.500;2023-02-22T17:48:44;2.60;;;1.80;;
15528;SDS011;7866;52.280;9.500;2023-02-22T17:53:48;2.87;;;1.93;;
15528;SDS011;7866;52.280;9.500;2023-02-22T17:58:52;3.13;;;2.00;;
15528;SDS011;7866;52.280;9.500;2023-02-22T18:03:55;2.20;;;1.93;;
15528;SDS011;7866;52.280;9.500;2023-02-22T18:09:00;2.97;;;2.17;;
15528;SDS011;7866;52.280;9.500;2023-02-22T18:14:09;4.27;;;2.20;;
15528;SDS011;7866;52.280;9.500;2023-02-22T18:19:11;2.33;;;2.00;;
15528;SDS011;7866;52.280;9.500;2023-02-22T18:24:14;2.60;;;2.17;;
15528;SDS011;7866;52.280;9.500;2023-02-22T18:29:17;2.03;;;1.93;;
15528;SDS011;7866;52.280;9.500;2023-02-22T18:34:19;2.13;;;2.00;;
15528;SDS011;7866;52.280;9.500;2023-02-22T18:39:25;2.47;;;2.27;;
15528;SDS011;7866;52.280;9.500;2023-02-22T18:44:30;2.20;;;2.00;;
15528;SDS011;7866;52.280;9.500;2023-02-22T18:49:32;4.07;;;2.63;;
15528;SDS011;7866;52.280;9.500;2023-02-22T18:54:35;4.70;;;2.10;;
15528;SDS011;7866;52.280;9.500;2023-02-22T18:59:39;4.43;;;2.30;;
15528;SDS011;7866;52.280;9.500;2023-02-22T19:04:41;2.23;;;2.00;;
15528;SDS011;7866;52.280;9.500;2023-02-22T19:09:44;1.97;;;1.60;;
15528;SDS011;7866;52.280;9.500;2023-02-22T19:14:50;1.90;;;1.70;;
15528;SDS011;7866;52.280;9.500;2023-02-22T19:19:51;3.07;;;1.83;;
15528;SDS011;7866;52.280;9.500;2023-02-22T19:24:54;2.93;;;1.90;;
15528;SDS011;7866;52.280;9.500;2023-02-22T19:29:56;2.23;;;1.93;;
15528;SDS011;7866;52.280;9.500;2023-02-22T19:34:58;3.83;;;1.80;;
15528;SDS011;7866;52.280;9.500;2023-02-22T19:40:07;3.90;;;2.00;;
15528;SDS011;7866;52.280;9.500;2023-02-22T19:45:09;2.67;;;2.20;;
15528;SDS011;7866;52.280;9.500;2023-02-22T19:50:11;4.03;;;2.40;;
15528;SDS011;7866;52.280;9.500;2023-02-22T19:55:14;1.87;;;1.77;;
15528;SDS011;7866;52.280;9.500;2023-02-22T20:00:16;4.23;;;2.13;;
15528;SDS011;7866;52.280;9.500;2023-02-22T20:05:23;3.90;;;2.23;;
15528;SDS011;7866;52.280;9.500;2023-02-22T20:10:26;3.63;;;2.40;;
15528;SDS011;7866;52.280;9.500;2023-02-22T20:15:30;3.10;;;2.77;;
15528;SDS011;7866;52.280;9.500;2023-02-22T20:20:33;3.80;;;3.20;;
15528;SDS011;7866;52.280;9.500;2023-02-22T20:25:37;4.03;;;3.30;;
15528;SDS011;7866;52.280;9.500;2023-02-22T20:30:39;4.60;;;3.07;;
15528;SDS011;7866;52.280;9.500;2023-02-22T20:35:41;4.37;;;3.57;;
15528;SDS011;7866;52.280;9.500;2023-02-22T20:40:44;5.27;;;4.77;;
15528;SDS011;7866;52.280;9.500;2023-02-22T20:45:46;5.43;;;3.57;;
15528;SDS011;7866;52.280;9.500;2023-02-22T20:50:47;4.90;;;3.50;;
15528;SDS011;7866;52.280;9.500;2023-02-22T20:55:50;5.03;;;4.53;;
15528;SDS011;7866;52.280;9.500;2023-02-22T21:00:54;7.17;;;4.43;;
15528;SDS011;7866;52.280;9.500;2023-02-22T21:05:56;4.53;;;4.13;;
15528;SDS011;7866;52.280;9.500;2023-02-22T21:10:59;6.57;;;4.40;;
15528;SDS011;7866;52.280;9.500;2023-02-22T21:16:01;6.60;;;5.00;;
15528;SDS011;7866;52.280;9.500;2023-02-22T21:21:03;6.00;;;5.40;;
15528;SDS011;7866;52.280;9.500;2023-02-22T21:26:12;4.73;;;4.13;;
15528;SDS011;7866;52.280;9.500;2023-02-22T21:31:15;6.00;;;5.27;;
15528;SDS011;7866;52.280;9.500;2023-02-22T21:36:17;6.20;;;4.80;;
15528;SDS011;7866;52.280;9.500;2023-02-22T21:41:21;5.33;;;4.60;;
15528;SDS011;7866;52.280;9.500;2023-02-22T21:46:26;7.03;;;5.50;;
15528;SDS011;7866;52.280;9.500;2023-02-22T21:51:29;5.53;;;5.03;;
15528;SDS011;7866;52.280;9.500;2023-02-22T21:56:34;8.23;;;5.57;;
15528;SDS011;7866;52.280;9.500;2023-02-22T22:01:38;6.40;;;5.47;;
15528;SDS011;7866;52.280;9.500;2023-02-22T22:06:46;5.90;;;5.30;;
15528;SDS011;7866;52.280;9.500;2023-02-22T22:11:50;7.80;;;5.77;;
15528;SDS011;7866;52.280;9.500;2023-02-22T22:16:54;5.53;;;5.00;;
15528;SDS011;7866;52.280;9.500;2023-02-22T22:21:57;6.23;;;5.60;;
15528;SDS011;7866;52.280;9.500;2023-02-22T22:27:00;5.33;;;4.53;;
15528;SDS011;7866;52.280;9.500;2023-02-22T22:32:04;6.00;;;5.40;;
15528;SDS011;7866;52.280;9.500;2023-02-22T22:37:06;7.90;;;5.93;;
15528;SDS011;7866;52.280;9.500;2023-02-22T22:42:09;8.27;;;5.87;;
15528;SDS011;7866;52.280;9.500;2023-02-22T22:47:10;7.27;;;6.43;;
15528;SDS011;7866;52.280;9.500;2023-02-22T22:52:13;6.97;;;5.90;;
15528;SDS011;7866;52.280;9.500;2023-02-22T22:57:19;8.50;;;6.67;;
15528;SDS011;7866;52.280;9.500;2023-02-22T23:02:23;8.40;;;7.07;;
15528;SDS011;7866;52.280;9.500;2023-02-22T23:07:25;8.83;;;6.50;;
15528;SDS011;7866;52.280;9.500;2023-02-22T23:12:28;9.93;;;8.00;;
15528;SDS011;7866;52.280;9.500;2023-02-22T23:17:30;9.27;;;8.27;;
15528;SDS011;7866;52.280;9.500;2023-02-22T23:22:40;10.60;;;8.10;;
15528;SDS011;7866;52.280;9.500;2023-02-22T23:27:47;9.33;;;8.10;;
15528;SDS011;7866;52.280;9.500;2023-02-22T23:32:49;10.67;;;8.23;;
15528;SDS011;7866;52.280;9.500;2023-02-22T23:37:53;10.30;;;8.87;;
15528;SDS011;7866;52.280;9.500;2023-02-22T23:42:58;11.13;;;9.70;;
15528;SDS011;7866;52.280;9.500;2023-02-22T23:48:03;12.70;;;9.17;;
15528;SDS011;7866;52.280;9.500;2023-02-22T23:53:05;9.80;;;8.80;;
15528;SDS011;7866;52.280;9.500;2023-02-22T23:58:12;10.33;;;9.23;;
